sensor_id;sensor_type;location;lat;lon;timestamp;P1;durP1;ratioP1;P2;durP2;ratioP2
36585;SDS011;22591;48.314;11.562;2022-12-24T00:01:55;0.95;;;0.95;;
36585;SDS011;22591;48.314;11.562;2022-12-24T00:04:20;0.93;;;0.70;;
36585;SDS011;22591;48.314;11.562;2022-12-24T00:06:46;0.52;;;0.52;;
36585;SDS011;22591;48.314;11.562;2022-12-24T00:09:11;2.38;;;0.80;;
36585;SDS011;22591;48.314;11.562;2022-12-24T00:11:39;0.73;;;0.73;;
36585;SDS011;22591;48.314;11.562;2022-12-24T00:14:05;0.70;;;0.70;;
36585;SDS011;22591;48.314;11.562;2022-12-24T00:16:30;2.55;;;0.80;;
36585;SDS011;22591;48.314;11.562;2022-12-24T00:18:56;0.75;;;0.70;;
36585;SDS011;22591;48.314;11.562;2022-12-24T00:21:22;1.50;;;0.75;;
36585;SDS011;22591;48.314;11.562;2022-12-24T00:23:47;1.77;;;0.60;;
36585;SDS011;22591;48.314;11.562;2022-12-24T00:26:13;1.77;;;0.82;;
36585;SDS011;22591;48.314;11.562;2022-12-24T00:28:39;0.77;;;0.77;;
36585;SDS011;22591;48.314;11.562;2022-12-24T00:31:11;0.63;;;0.63;;
36585;SDS011;22591;48.314;11.562;2022-12-24T00:33:39;1.00;;;0.80;;
36585;SDS011;22591;48.314;11.562;2022-12-24T00:36:04;0.73;;;0.73;;
36585;SDS011;22591;48.314;11.562;2022-12-24T00:38:31;1.27;;;0.68;;
36585;SDS011;22591;48.314;11.562;2022-12-24T00:41:00;1.30;;;0.93;;
36585;SDS011;22591;48.314;11.562;2022-12-24T00:43:28;2.85;;;1.00;;
36585;SDS011;22591;48.314;11.562;2022-12-24T00:45:54;3.10;;;1.10;;
36585;SDS011;22591;48.314;11.562;2022-12-24T00:48:20;0.70;;;0.65;;
36585;SDS011;22591;48.314;11.562;2022-12-24T00:50:46;2.97;;;1.00;;
36585;SDS011;22591;48.314;11.562;2022-12-24T00:53:13;0.82;;;0.77;;
36585;SDS011;22591;48.314;11.562;2022-12-24T00:55:38;1.17;;;0.88;;
36585;SDS011;22591;48.314;11.562;2022-12-24T00:58:04;1.73;;;1.63;;
36585;SDS011;22591;48.314;11.562;2022-12-24T01:00:29;1.08;;;1.08;;
36585;SDS011;22591;48.314;11.562;2022-12-24T01:02:55;2.58;;;1.15;;
36585;SDS011;22591;48.314;11.562;2022-12-24T01:05:20;2.58;;;1.20;;
36585;SDS011;22591;48.314;11.562;2022-12-24T01:07:47;2.20;;;2.00;;
36585;SDS011;22591;48.314;11.562;2022-12-24T01:10:14;3.22;;;1.80;;
36585;SDS011;22591;48.314;11.562;2022-12-24T01:12:41;0.98;;;0.98;;
36585;SDS011;22591;48.314;11.562;2022-12-24T01:15:07;2.38;;;1.20;;
36585;SDS011;22591;48.314;11.562;2022-12-24T01:17:34;1.23;;;1.00;;
36585;SDS011;22591;48.314;11.562;2022-12-24T01:20:00;2.83;;;1.50;;
36585;SDS011;22591;48.314;11.562;2022-12-24T01:22:27;1.17;;;1.10;;
36585;SDS011;22591;48.314;11.562;2022-12-24T01:24:52;1.63;;;1.52;;
36585;SDS011;22591;48.314;11.562;2022-12-24T01:27:18;1.10;;;1.10;;
36585;SDS011;22591;48.314;11.562;2022-12-24T01:29:43;2.13;;;1.30;;
36585;SDS011;22591;48.314;11.562;2022-12-24T01:32:09;1.75;;;1.20;;
36585;SDS011;22591;48.314;11.562;2022-12-24T01:34:34;1.10;;;1.10;;
36585;SDS011;22591;48.314;11.562;2022-12-24T01:37:00;1.95;;;1.60;;
36585;SDS011;22591;48.314;11.562;2022-12-24T01:39:26;1.30;;;1.30;;
36585;SDS011;22591;48.314;11.562;2022-12-24T01:41:51;2.28;;;1.27;;
36585;SDS011;22591;48.314;11.562;2022-12-24T01:44:47;1.35;;;1.25;;
36585;SDS011;22591;48.314;11.562;2022-12-24T01:47:22;1.50;;;1.40;;
36585;SDS011;22591;48.314;11.562;2022-12-24T01:50:01;1.35;;;1.25;;
36585;SDS011;22591;48.314;11.562;2022-12-24T01:52:36;1.90;;;1.45;;
36585;SDS011;22591;48.314;11.562;2022-12-24T01:55:02;1.10;;;1.10;;
36585;SDS011;22591;48.314;11.562;2022-12-24T01:57:41;1.38;;;1.27;;
36585;SDS011;22591;48.314;11.562;2022-12-24T02:00:12;2.17;;;1.45;;
36585;SDS011;22591;48.314;11.562;2022-12-24T02:02:40;3.03;;;1.40;;
36585;SDS011;22591;48.314;11.562;2022-12-24T02:07:43;1.60;;;1.30;;
36585;SDS011;22591;48.314;11.562;2022-12-24T02:10:10;2.63;;;1.38;;
36585;SDS011;22591;48.314;11.562;2022-12-24T02:12:37;1.30;;;1.20;;
36585;SDS011;22591;48.314;11.562;2022-12-24T02:15:05;4.05;;;1.40;;
36585;SDS011;22591;48.314;11.562;2022-12-24T02:17:44;2.40;;;1.20;;
36585;SDS011;22591;48.314;11.562;2022-12-24T02:20:42;1.58;;;1.45;;
36585;SDS011;22591;48.314;11.562;2022-12-24T02:29:15;2.40;;;1.20;;
36585;SDS011;22591;48.314;11.562;2022-12-24T02:32:04;3.05;;;2.13;;
36585;SDS011;22591;48.314;11.562;2022-12-24T02:34:39;7.38;;;1.67;;
36585;SDS011;22591;48.314;11.562;2022-12-24T02:37:16;1.90;;;1.60;;
36585;SDS011;22591;48.314;11.562;2022-12-24T02:39:48;2.33;;;1.63;;
36585;SDS011;22591;48.314;11.562;2022-12-24T02:42:19;2.60;;;1.75;;
36585;SDS011;22591;48.314;11.562;2022-12-24T02:44:52;2.28;;;1.70;;
36585;SDS011;22591;48.314;11.562;2022-12-24T02:47:26;1.50;;;1.40;;
36585;SDS011;22591;48.314;11.562;2022-12-24T02:49:52;1.48;;;1.38;;
36585;SDS011;22591;48.314;11.562;2022-12-24T02:52:28;2.58;;;1.52;;
36585;SDS011;22591;48.314;11.562;2022-12-24T02:54:59;3.63;;;1.77;;
36585;SDS011;22591;48.314;11.562;2022-12-24T03:00:25;1.52;;;1.10;;
36585;SDS011;22591;48.314;11.562;2022-12-24T03:06:08;3.78;;;1.40;;
36585;SDS011;22591;48.314;11.562;2022-12-24T03:11:34;1.80;;;1.20;;
36585;SDS011;22591;48.314;11.562;2022-12-24T03:14:02;1.77;;;1.23;;
36585;SDS011;22591;48.314;11.562;2022-12-24T03:16:28;1.40;;;1.15;;
36585;SDS011;22591;48.314;11.562;2022-12-24T03:18:54;3.10;;;1.05;;
36585;SDS011;22591;48.314;11.562;2022-12-24T03:21:25;3.17;;;1.23;;
36585;SDS011;22591;48.314;11.562;2022-12-24T03:23:56;1.48;;;1.30;;
36585;SDS011;22591;48.314;11.562;2022-12-24T03:26:22;1.23;;;1.20;;
36585;SDS011;22591;48.314;11.562;2022-12-24T03:28:49;4.10;;;1.40;;
36585;SDS011;22591;48.314;11.562;2022-12-24T03:31:15;3.97;;;1.45;;
36585;SDS011;22591;48.314;11.562;2022-12-24T03:33:42;5.30;;;1.25;;
36585;SDS011;22591;48.314;11.562;2022-12-24T03:36:08;3.63;;;1.30;;
36585;SDS011;22591;48.314;11.562;2022-12-24T03:38:34;1.33;;;1.20;;
36585;SDS011;22591;48.314;11.562;2022-12-24T03:41:00;1.08;;;0.98;;
36585;SDS011;22591;48.314;11.562;2022-12-24T03:43:26;2.55;;;1.00;;
36585;SDS011;22591;48.314;11.562;2022-12-24T03:45:52;1.83;;;1.30;;
36585;SDS011;22591;48.314;11.562;2022-12-24T03:48:17;2.58;;;1.15;;
36585;SDS011;22591;48.314;11.562;2022-12-24T03:50:43;3.17;;;1.38;;
36585;SDS011;22591;48.314;11.562;2022-12-24T03:53:08;1.40;;;1.30;;
36585;SDS011;22591;48.314;11.562;2022-12-24T03:55:34;1.95;;;1.38;;
36585;SDS011;22591;48.314;11.562;2022-12-24T03:58:00;1.73;;;1.40;;
36585;SDS011;22591;48.314;11.562;2022-12-24T04:00:25;2.58;;;1.40;;
36585;SDS011;22591;48.314;11.562;2022-12-24T04:02:51;2.42;;;1.30;;
36585;SDS011;22591;48.314;11.562;2022-12-24T04:05:18;2.28;;;1.35;;
36585;SDS011;22591;48.314;11.562;2022-12-24T04:07:44;2.13;;;1.23;;
36585;SDS011;22591;48.314;11.562;2022-12-24T04:10:10;1.98;;;1.48;;
36585;SDS011;22591;48.314;11.562;2022-12-24T04:12:37;4.47;;;1.58;;
36585;SDS011;22591;48.314;11.562;2022-12-24T04:15:03;3.35;;;1.73;;
36585;SDS011;22591;48.314;11.562;2022-12-24T04:17:29;3.60;;;1.75;;
36585;SDS011;22591;48.314;11.562;2022-12-24T04:19:55;3.15;;;1.65;;
36585;SDS011;22591;48.314;11.562;2022-12-24T04:22:20;3.67;;;1.63;;
36585;SDS011;22591;48.314;11.562;2022-12-24T04:24:46;2.50;;;1.58;;
36585;SDS011;22591;48.314;11.562;2022-12-24T04:27:15;3.10;;;1.60;;
36585;SDS011;22591;48.314;11.562;2022-12-24T04:29:40;2.42;;;1.52;;
36585;SDS011;22591;48.314;11.562;2022-12-24T04:32:06;2.30;;;1.25;;
36585;SDS011;22591;48.314;11.562;2022-12-24T04:34:32;2.15;;;1.60;;
36585;SDS011;22591;48.314;11.562;2022-12-24T04:36:57;2.72;;;1.20;;
36585;SDS011;22591;48.314;11.562;2022-12-24T04:39:23;3.05;;;1.63;;
36585;SDS011;22591;48.314;11.562;2022-12-24T04:41:48;1.42;;;1.30;;
36585;SDS011;22591;48.314;11.562;2022-12-24T04:44:14;5.85;;;1.98;;
36585;SDS011;22591;48.314;11.562;2022-12-24T04:46:39;3.22;;;1.42;;
36585;SDS011;22591;48.314;11.562;2022-12-24T04:49:06;2.35;;;1.00;;
36585;SDS011;22591;48.314;11.562;2022-12-24T04:51:32;1.50;;;1.40;;
36585;SDS011;22591;48.314;11.562;2022-12-24T04:53:57;1.10;;;1.05;;
36585;SDS011;22591;48.314;11.562;2022-12-24T04:56:24;1.55;;;1.00;;
36585;SDS011;22591;48.314;11.562;2022-12-24T04:58:51;2.00;;;1.20;;
36585;SDS011;22591;48.314;11.562;2022-12-24T05:01:18;1.67;;;1.35;;
36585;SDS011;22591;48.314;11.562;2022-12-24T05:03:48;7.80;;;1.70;;
36585;SDS011;22591;48.314;11.562;2022-12-24T05:06:15;2.58;;;1.52;;
36585;SDS011;22591;48.314;11.562;2022-12-24T05:08:43;1.30;;;1.25;;
36585;SDS011;22591;48.314;11.562;2022-12-24T05:11:09;2.17;;;1.25;;
36585;SDS011;22591;48.314;11.562;2022-12-24T05:13:38;2.28;;;1.30;;
36585;SDS011;22591;48.314;11.562;2022-12-24T05:16:05;3.63;;;1.40;;
36585;SDS011;22591;48.314;11.562;2022-12-24T05:18:30;1.42;;;1.33;;
36585;SDS011;22591;48.314;11.562;2022-12-24T05:20:56;1.38;;;1.05;;
36585;SDS011;22591;48.314;11.562;2022-12-24T05:23:22;1.63;;;1.20;;
36585;SDS011;22591;48.314;11.562;2022-12-24T05:26:13;3.47;;;1.52;;
36585;SDS011;22591;48.314;11.562;2022-12-24T05:28:52;1.13;;;1.10;;
36585;SDS011;22591;48.314;11.562;2022-12-24T05:31:19;2.78;;;1.30;;
36585;SDS011;22591;48.314;11.562;2022-12-24T05:33:46;4.57;;;1.50;;
36585;SDS011;22591;48.314;11.562;2022-12-24T05:36:12;2.60;;;1.23;;
36585;SDS011;22591;48.314;11.562;2022-12-24T05:38:38;3.50;;;1.30;;
36585;SDS011;22591;48.314;11.562;2022-12-24T05:41:04;3.00;;;1.70;;
36585;SDS011;22591;48.314;11.562;2022-12-24T05:43:30;4.10;;;2.10;;
36585;SDS011;22591;48.314;11.562;2022-12-24T05:45:59;5.15;;;1.65;;
36585;SDS011;22591;48.314;11.562;2022-12-24T05:48:26;1.55;;;1.33;;
36585;SDS011;22591;48.314;11.562;2022-12-24T05:50:51;1.40;;;1.30;;
36585;SDS011;22591;48.314;11.562;2022-12-24T05:53:17;4.25;;;1.60;;
36585;SDS011;22591;48.314;11.562;2022-12-24T05:55:43;67.53;;;4.53;;
36585;SDS011;22591;48.314;11.562;2022-12-24T05:58:09;15.07;;;2.45;;
36585;SDS011;22591;48.314;11.562;2022-12-24T06:00:34;5.00;;;1.90;;
36585;SDS011;22591;48.314;11.562;2022-12-24T06:03:00;5.43;;;3.08;;
36585;SDS011;22591;48.314;11.562;2022-12-24T06:05:25;2.97;;;1.85;;
36585;SDS011;22591;48.314;11.562;2022-12-24T06:07:51;1.80;;;1.70;;
36585;SDS011;22591;48.314;11.562;2022-12-24T06:10:16;2.60;;;1.50;;
36585;SDS011;22591;48.314;11.562;2022-12-24T06:12:43;3.08;;;1.52;;
36585;SDS011;22591;48.314;11.562;2022-12-24T06:15:08;3.67;;;2.50;;
36585;SDS011;22591;48.314;11.562;2022-12-24T06:17:34;6.10;;;2.97;;
36585;SDS011;22591;48.314;11.562;2022-12-24T06:19:59;4.03;;;3.13;;
36585;SDS011;22591;48.314;11.562;2022-12-24T06:22:25;2.17;;;2.08;;
36585;SDS011;22591;48.314;11.562;2022-12-24T06:24:51;4.47;;;2.30;;
36585;SDS011;22591;48.314;11.562;2022-12-24T06:27:16;6.90;;;2.50;;
36585;SDS011;22591;48.314;11.562;2022-12-24T06:29:42;5.00;;;2.50;;
36585;SDS011;22591;48.314;11.562;2022-12-24T06:32:07;3.92;;;3.08;;
36585;SDS011;22591;48.314;11.562;2022-12-24T06:34:33;4.32;;;2.58;;
36585;SDS011;22591;48.314;11.562;2022-12-24T06:36:58;4.68;;;3.30;;
36585;SDS011;22591;48.314;11.562;2022-12-24T06:39:24;4.72;;;2.85;;
36585;SDS011;22591;48.314;11.562;2022-12-24T06:41:49;7.53;;;3.85;;
36585;SDS011;22591;48.314;11.562;2022-12-24T06:44:15;7.55;;;4.35;;
36585;SDS011;22591;48.314;11.562;2022-12-24T06:46:40;5.25;;;4.70;;
36585;SDS011;22591;48.314;11.562;2022-12-24T06:49:06;5.90;;;4.88;;
36585;SDS011;22591;48.314;11.562;2022-12-24T06:51:32;4.78;;;4.47;;
36585;SDS011;22591;48.314;11.562;2022-12-24T06:53:57;6.78;;;5.32;;
36585;SDS011;22591;48.314;11.562;2022-12-24T06:56:23;5.32;;;3.85;;
36585;SDS011;22591;48.314;11.562;2022-12-24T06:58:48;5.68;;;3.58;;
36585;SDS011;22591;48.314;11.562;2022-12-24T07:01:15;4.55;;;3.33;;
36585;SDS011;22591;48.314;11.562;2022-12-24T07:03:41;4.75;;;4.20;;
36585;SDS011;22591;48.314;11.562;2022-12-24T07:06:14;5.53;;;2.65;;
36585;SDS011;22591;48.314;11.562;2022-12-24T07:08:45;4.10;;;3.30;;
36585;SDS011;22591;48.314;11.562;2022-12-24T07:11:11;3.30;;;2.92;;
36585;SDS011;22591;48.314;11.562;2022-12-24T07:13:36;4.47;;;3.22;;
36585;SDS011;22591;48.314;11.562;2022-12-24T07:16:02;5.40;;;3.83;;
36585;SDS011;22591;48.314;11.562;2022-12-24T07:18:29;7.63;;;4.70;;
36585;SDS011;22591;48.314;11.562;2022-12-24T07:20:55;6.25;;;4.45;;
36585;SDS011;22591;48.314;11.562;2022-12-24T07:23:21;9.95;;;4.25;;
36585;SDS011;22591;48.314;11.562;2022-12-24T07:25:47;4.10;;;3.60;;
36585;SDS011;22591;48.314;11.562;2022-12-24T07:28:13;5.72;;;5.18;;
36585;SDS011;22591;48.314;11.562;2022-12-24T07:30:38;7.43;;;5.88;;
36585;SDS011;22591;48.314;11.562;2022-12-24T07:33:04;4.30;;;3.58;;
36585;SDS011;22591;48.314;11.562;2022-12-24T07:35:30;5.07;;;2.88;;
36585;SDS011;22591;48.314;11.562;2022-12-24T07:37:55;4.63;;;2.13;;
36585;SDS011;22591;48.314;11.562;2022-12-24T07:40:21;6.60;;;1.92;;
36585;SDS011;22591;48.314;11.562;2022-12-24T07:42:46;4.55;;;3.60;;
36585;SDS011;22591;48.314;11.562;2022-12-24T07:45:12;6.88;;;2.55;;
36585;SDS011;22591;48.314;11.562;2022-12-24T07:47:37;5.75;;;1.60;;
36585;SDS011;22591;48.314;11.562;2022-12-24T07:50:03;3.65;;;2.35;;
36585;SDS011;22591;48.314;11.562;2022-12-24T07:52:30;2.78;;;1.50;;
36585;SDS011;22591;48.314;11.562;2022-12-24T07:54:55;5.75;;;2.15;;
36585;SDS011;22591;48.314;11.562;2022-12-24T07:57:21;1.73;;;1.20;;
36585;SDS011;22591;48.314;11.562;2022-12-24T07:59:46;2.35;;;1.63;;
36585;SDS011;22591;48.314;11.562;2022-12-24T08:02:12;3.88;;;1.55;;
36585;SDS011;22591;48.314;11.562;2022-12-24T08:04:37;3.58;;;1.50;;
36585;SDS011;22591;48.314;11.562;2022-12-24T08:07:04;4.45;;;2.22;;
36585;SDS011;22591;48.314;11.562;2022-12-24T08:09:34;3.85;;;1.38;;
36585;SDS011;22591;48.314;11.562;2022-12-24T08:12:01;3.90;;;1.38;;
36585;SDS011;22591;48.314;11.562;2022-12-24T08:14:28;4.45;;;1.23;;
36585;SDS011;22591;48.314;11.562;2022-12-24T08:16:54;2.10;;;1.20;;
36585;SDS011;22591;48.314;11.562;2022-12-24T08:19:19;1.40;;;1.20;;
36585;SDS011;22591;48.314;11.562;2022-12-24T08:21:45;4.20;;;1.30;;
36585;SDS011;22591;48.314;11.562;2022-12-24T08:24:10;3.97;;;1.30;;
36585;SDS011;22591;48.314;11.562;2022-12-24T08:26:36;2.90;;;1.40;;
36585;SDS011;22591;48.314;11.562;2022-12-24T08:29:03;3.85;;;1.65;;
36585;SDS011;22591;48.314;11.562;2022-12-24T08:31:29;6.18;;;1.60;;
36585;SDS011;22591;48.314;11.562;2022-12-24T08:34:00;5.97;;;1.50;;
36585;SDS011;22591;48.314;11.562;2022-12-24T08:36:26;1.98;;;1.20;;
36585;SDS011;22591;48.314;11.562;2022-12-24T08:38:52;3.38;;;1.40;;
36585;SDS011;22591;48.314;11.562;2022-12-24T08:41:17;5.53;;;1.50;;
36585;SDS011;22591;48.314;11.562;2022-12-24T08:43:43;9.55;;;1.80;;
36585;SDS011;22591;48.314;11.562;2022-12-24T08:46:09;5.35;;;1.92;;
36585;SDS011;22591;48.314;11.562;2022-12-24T08:48:35;2.15;;;1.70;;
36585;SDS011;22591;48.314;11.562;2022-12-24T08:51:04;5.18;;;2.50;;
36585;SDS011;22591;48.314;11.562;2022-12-24T08:53:31;3.97;;;1.63;;
36585;SDS011;22591;48.314;11.562;2022-12-24T08:56:01;4.18;;;2.10;;
36585;SDS011;22591;48.314;11.562;2022-12-24T08:58:31;3.83;;;2.00;;
36585;SDS011;22591;48.314;11.562;2022-12-24T09:00:57;4.85;;;2.20;;
36585;SDS011;22591;48.314;11.562;2022-12-24T09:03:23;2.75;;;1.42;;
36585;SDS011;22591;48.314;11.562;2022-12-24T09:05:49;3.97;;;1.30;;
36585;SDS011;22591;48.314;11.562;2022-12-24T09:08:14;8.32;;;2.40;;
36585;SDS011;22591;48.314;11.562;2022-12-24T09:10:40;3.80;;;1.58;;
36585;SDS011;22591;48.314;11.562;2022-12-24T09:13:06;2.63;;;1.20;;
36585;SDS011;22591;48.314;11.562;2022-12-24T09:15:31;3.78;;;1.48;;
36585;SDS011;22591;48.314;11.562;2022-12-24T09:17:57;3.42;;;1.27;;
36585;SDS011;22591;48.314;11.562;2022-12-24T09:20:23;2.92;;;1.20;;
36585;SDS011;22591;48.314;11.562;2022-12-24T09:22:48;1.67;;;1.10;;
36585;SDS011;22591;48.314;11.562;2022-12-24T09:25:14;2.45;;;1.27;;
36585;SDS011;22591;48.314;11.562;2022-12-24T09:27:39;4.15;;;2.22;;
36585;SDS011;22591;48.314;11.562;2022-12-24T09:30:05;1.20;;;1.10;;
36585;SDS011;22591;48.314;11.562;2022-12-24T09:32:32;1.30;;;1.00;;
36585;SDS011;22591;48.314;11.562;2022-12-24T09:34:58;2.65;;;0.98;;
36585;SDS011;22591;48.314;11.562;2022-12-24T09:37:23;1.40;;;1.10;;
36585;SDS011;22591;48.314;11.562;2022-12-24T09:39:49;1.77;;;1.20;;
36585;SDS011;22591;48.314;11.562;2022-12-24T09:42:21;2.72;;;1.85;;
36585;SDS011;22591;48.314;11.562;2022-12-24T09:48:29;2.35;;;2.03;;
36585;SDS011;22591;48.314;11.562;2022-12-24T09:50:59;1.30;;;1.20;;
36585;SDS011;22591;48.314;11.562;2022-12-24T09:53:28;1.77;;;1.10;;
36585;SDS011;22591;48.314;11.562;2022-12-24T09:56:03;2.50;;;1.40;;
36585;SDS011;22591;48.314;11.562;2022-12-24T09:58:45;1.50;;;1.40;;
36585;SDS011;22591;48.314;11.562;2022-12-24T10:01:13;1.83;;;1.00;;
36585;SDS011;22591;48.314;11.562;2022-12-24T10:03:40;1.27;;;1.00;;
36585;SDS011;22591;48.314;11.562;2022-12-24T10:06:12;1.05;;;0.95;;
36585;SDS011;22591;48.314;11.562;2022-12-24T10:20:07;1.52;;;1.25;;
36585;SDS011;22591;48.314;11.562;2022-12-24T10:22:52;2.35;;;1.40;;
36585;SDS011;22591;48.314;11.562;2022-12-24T10:25:28;2.55;;;1.08;;
36585;SDS011;22591;48.314;11.562;2022-12-24T10:28:02;1.77;;;1.20;;
36585;SDS011;22591;48.314;11.562;2022-12-24T10:30:37;2.58;;;1.10;;
36585;SDS011;22591;48.314;11.562;2022-12-24T10:33:08;2.53;;;0.90;;
36585;SDS011;22591;48.314;11.562;2022-12-24T10:35:50;2.65;;;1.17;;
36585;SDS011;22591;48.314;11.562;2022-12-24T10:38:18;2.70;;;1.00;;
36585;SDS011;22591;48.314;11.562;2022-12-24T10:40:45;1.35;;;1.10;;
36585;SDS011;22591;48.314;11.562;2022-12-24T10:45:47;1.90;;;0.93;;
36585;SDS011;22591;48.314;11.562;2022-12-24T10:48:34;1.30;;;1.20;;
36585;SDS011;22591;48.314;11.562;2022-12-24T10:53:44;3.90;;;1.40;;
36585;SDS011;22591;48.314;11.562;2022-12-24T10:56:14;2.05;;;1.10;;
36585;SDS011;22591;48.314;11.562;2022-12-24T10:58:44;1.80;;;1.08;;
36585;SDS011;22591;48.314;11.562;2022-12-24T11:01:15;4.32;;;1.30;;
36585;SDS011;22591;48.314;11.562;2022-12-24T11:03:41;2.83;;;1.10;;
36585;SDS011;22591;48.314;11.562;2022-12-24T11:06:08;1.25;;;1.00;;
36585;SDS011;22591;48.314;11.562;2022-12-24T11:08:42;2.22;;;1.50;;
36585;SDS011;22591;48.314;11.562;2022-12-24T11:13:42;2.05;;;1.05;;
36585;SDS011;22591;48.314;11.562;2022-12-24T11:16:16;1.27;;;1.17;;
36585;SDS011;22591;48.314;11.562;2022-12-24T11:18:49;1.33;;;0.90;;
36585;SDS011;22591;48.314;11.562;2022-12-24T11:23:51;3.60;;;1.95;;
36585;SDS011;22591;48.314;11.562;2022-12-24T11:26:21;3.35;;;0.88;;
36585;SDS011;22591;48.314;11.562;2022-12-24T11:29:05;4.18;;;1.50;;
36585;SDS011;22591;48.314;11.562;2022-12-24T11:31:38;3.83;;;1.63;;
36585;SDS011;22591;48.314;11.562;2022-12-24T11:36:54;2.33;;;1.25;;
36585;SDS011;22591;48.314;11.562;2022-12-24T11:39:36;3.22;;;1.38;;
36585;SDS011;22591;48.314;11.562;2022-12-24T11:42:05;1.05;;;0.93;;
36585;SDS011;22591;48.314;11.562;2022-12-24T11:44:31;3.95;;;1.15;;
36585;SDS011;22591;48.314;11.562;2022-12-24T11:46:57;1.92;;;1.00;;
36585;SDS011;22591;48.314;11.562;2022-12-24T11:57:22;3.92;;;1.70;;
36585;SDS011;22591;48.314;11.562;2022-12-24T11:59:52;5.60;;;1.63;;
36585;SDS011;22591;48.314;11.562;2022-12-24T12:02:21;4.15;;;1.50;;
36585;SDS011;22591;48.314;11.562;2022-12-24T12:04:53;3.80;;;1.88;;
36585;SDS011;22591;48.314;11.562;2022-12-24T12:09:51;3.80;;;1.85;;
36585;SDS011;22591;48.314;11.562;2022-12-24T12:12:30;3.30;;;1.52;;
36585;SDS011;22591;48.314;11.562;2022-12-24T12:15:03;1.88;;;1.35;;
36585;SDS011;22591;48.314;11.562;2022-12-24T12:17:42;4.03;;;1.10;;
36585;SDS011;22591;48.314;11.562;2022-12-24T12:20:57;2.40;;;1.20;;
36585;SDS011;22591;48.314;11.562;2022-12-24T12:25:52;3.63;;;1.10;;
36585;SDS011;22591;48.314;11.562;2022-12-24T12:28:35;3.25;;;1.45;;
36585;SDS011;22591;48.314;11.562;2022-12-24T12:33:38;2.88;;;1.00;;
36585;SDS011;22591;48.314;11.562;2022-12-24T12:36:07;2.47;;;1.67;;
36585;SDS011;22591;48.314;11.562;2022-12-24T12:38:35;1.55;;;1.08;;
36585;SDS011;22591;48.314;11.562;2022-12-24T12:52:04;3.10;;;1.48;;
36585;SDS011;22591;48.314;11.562;2022-12-24T12:57:25;2.10;;;1.20;;
36585;SDS011;22591;48.314;11.562;2022-12-24T12:59:59;2.85;;;1.20;;
36585;SDS011;22591;48.314;11.562;2022-12-24T13:02:49;2.47;;;1.30;;
36585;SDS011;22591;48.314;11.562;2022-12-24T13:21:17;1.98;;;1.08;;
36585;SDS011;22591;48.314;11.562;2022-12-24T13:23:46;2.22;;;1.15;;
36585;SDS011;22591;48.314;11.562;2022-12-24T13:26:12;2.28;;;1.40;;
36585;SDS011;22591;48.314;11.562;2022-12-24T13:28:39;1.58;;;1.13;;
36585;SDS011;22591;48.314;11.562;2022-12-24T13:36:12;2.65;;;1.48;;
36585;SDS011;22591;48.314;11.562;2022-12-24T13:38:49;4.50;;;1.10;;
36585;SDS011;22591;48.314;11.562;2022-12-24T13:54:32;3.08;;;1.50;;
36585;SDS011;22591;48.314;11.562;2022-12-24T13:56:58;3.65;;;1.60;;
36585;SDS011;22591;48.314;11.562;2022-12-24T14:01:53;2.60;;;1.30;;
36585;SDS011;22591;48.314;11.562;2022-12-24T14:04:22;3.65;;;1.20;;
36585;SDS011;22591;48.314;11.562;2022-12-24T14:06:52;2.63;;;1.30;;
36585;SDS011;22591;48.314;11.562;2022-12-24T14:09:20;1.85;;;1.35;;
36585;SDS011;22591;48.314;11.562;2022-12-24T14:14:33;2.45;;;1.70;;
36585;SDS011;22591;48.314;11.562;2022-12-24T14:17:19;3.75;;;1.67;;
36585;SDS011;22591;48.314;11.562;2022-12-24T14:19:48;3.40;;;1.73;;
36585;SDS011;22591;48.314;11.562;2022-12-24T14:22:19;4.40;;;1.63;;
36585;SDS011;22591;48.314;11.562;2022-12-24T14:24:57;2.22;;;1.40;;
36585;SDS011;22591;48.314;11.562;2022-12-24T14:32:38;2.13;;;1.00;;
36585;SDS011;22591;48.314;11.562;2022-12-24T14:38:10;4.20;;;1.52;;
36585;SDS011;22591;48.314;11.562;2022-12-24T14:40:53;3.35;;;1.10;;
36585;SDS011;22591;48.314;11.562;2022-12-24T14:44:00;4.28;;;1.42;;
36585;SDS011;22591;48.314;11.562;2022-12-24T14:46:43;3.90;;;1.88;;
36585;SDS011;22591;48.314;11.562;2022-12-24T14:54:49;5.60;;;1.50;;
36585;SDS011;22591;48.314;11.562;2022-12-24T14:57:19;3.65;;;1.48;;
36585;SDS011;22591;48.314;11.562;2022-12-24T15:02:20;1.40;;;1.27;;
36585;SDS011;22591;48.314;11.562;2022-12-24T15:07:30;3.13;;;1.20;;
36585;SDS011;22591;48.314;11.562;2022-12-24T15:09:58;2.85;;;1.55;;
36585;SDS011;22591;48.314;11.562;2022-12-24T15:12:25;3.47;;;1.63;;
36585;SDS011;22591;48.314;11.562;2022-12-24T15:14:51;4.55;;;1.67;;
36585;SDS011;22591;48.314;11.562;2022-12-24T15:17:17;6.18;;;1.80;;
36585;SDS011;22591;48.314;11.562;2022-12-24T15:19:43;4.25;;;1.63;;
36585;SDS011;22591;48.314;11.562;2022-12-24T15:22:24;3.97;;;1.60;;
36585;SDS011;22591;48.314;11.562;2022-12-24T15:24:52;2.53;;;1.60;;
36585;SDS011;22591;48.314;11.562;2022-12-24T15:27:19;6.63;;;2.00;;
36585;SDS011;22591;48.314;11.562;2022-12-24T15:29:50;3.47;;;2.78;;
36585;SDS011;22591;48.314;11.562;2022-12-24T15:32:21;6.35;;;1.90;;
36585;SDS011;22591;48.314;11.562;2022-12-24T15:34:48;3.35;;;1.92;;
36585;SDS011;22591;48.314;11.562;2022-12-24T15:42:46;1.70;;;1.48;;
36585;SDS011;22591;48.314;11.562;2022-12-24T15:45:13;4.55;;;1.48;;
36585;SDS011;22591;48.314;11.562;2022-12-24T15:47:44;3.55;;;1.23;;
36585;SDS011;22591;48.314;11.562;2022-12-24T15:50:35;2.42;;;1.42;;
36585;SDS011;22591;48.314;11.562;2022-12-24T15:53:10;3.95;;;1.15;;
36585;SDS011;22591;48.314;11.562;2022-12-24T15:56:02;3.30;;;1.30;;
36585;SDS011;22591;48.314;11.562;2022-12-24T15:58:50;1.05;;;1.02;;
36585;SDS011;22591;48.314;11.562;2022-12-24T16:06:16;4.22;;;1.13;;
36585;SDS011;22591;48.314;11.562;2022-12-24T16:08:42;3.85;;;1.55;;
36585;SDS011;22591;48.314;11.562;2022-12-24T16:16:13;1.90;;;1.10;;
36585;SDS011;22591;48.314;11.562;2022-12-24T16:18:49;1.92;;;1.10;;
36585;SDS011;22591;48.314;11.562;2022-12-24T16:21:23;1.88;;;1.02;;
36585;SDS011;22591;48.314;11.562;2022-12-24T16:23:54;2.03;;;1.40;;
36585;SDS011;22591;48.314;11.562;2022-12-24T16:26:22;2.92;;;1.60;;
36585;SDS011;22591;48.314;11.562;2022-12-24T16:28:48;1.17;;;1.08;;
36585;SDS011;22591;48.314;11.562;2022-12-24T16:31:17;1.58;;;0.98;;
36585;SDS011;22591;48.314;11.562;2022-12-24T16:33:51;1.27;;;1.17;;
36585;SDS011;22591;48.314;11.562;2022-12-24T16:36:19;1.63;;;1.33;;
36585;SDS011;22591;48.314;11.562;2022-12-24T16:38:44;3.08;;;1.73;;
36585;SDS011;22591;48.314;11.562;2022-12-24T16:41:39;3.22;;;2.00;;
36585;SDS011;22591;48.314;11.562;2022-12-24T16:44:23;1.98;;;1.80;;
36585;SDS011;22591;48.314;11.562;2022-12-24T16:46:49;2.63;;;1.40;;
36585;SDS011;22591;48.314;11.562;2022-12-24T16:49:16;3.58;;;1.77;;
36585;SDS011;22591;48.314;11.562;2022-12-24T16:51:44;2.97;;;1.75;;
36585;SDS011;22591;48.314;11.562;2022-12-24T16:54:11;3.55;;;2.95;;
36585;SDS011;22591;48.314;11.562;2022-12-24T16:56:37;4.07;;;3.78;;
36585;SDS011;22591;48.314;11.562;2022-12-24T16:59:04;5.25;;;4.70;;
36585;SDS011;22591;48.314;11.562;2022-12-24T17:01:30;9.70;;;6.93;;
36585;SDS011;22591;48.314;11.562;2022-12-24T17:03:55;20.50;;;16.17;;
36585;SDS011;22591;48.314;11.562;2022-12-24T17:06:21;4.72;;;4.30;;
36585;SDS011;22591;48.314;11.562;2022-12-24T17:08:47;7.13;;;4.78;;
36585;SDS011;22591;48.314;11.562;2022-12-24T17:11:13;7.43;;;4.97;;
36585;SDS011;22591;48.314;11.562;2022-12-24T17:13:38;11.60;;;5.93;;